Time;durP1;ratioP1;P1;durP2;ratioP2;P2;SDS_P1;SDS_P2;PMS_P1;PMS_P2;Temp;Humidity;BMP_temperature;BMP_pressure;BME280_temperature;BME280_humidity;BME280_pressure;Samples;Min_cycle;Max_cycle;Signal;HPM_P1;HPM_P2
2022/07/26 00:01:57;;;;;;;8.38;4.65;;;17.80;99.90;;;;;;6157847;23;20020;-77
2022/07/26 00:04:25;;;;;;;8.43;4.40;;;17.80;99.90;;;;;;6148729;23;20349;-77
2022/07/26 00:06:53;;;;;;;7.28;5.78;;;17.80;99.90;;;;;;6155050;23;20030;-78
2022/07/26 00:09:21;;;;;;;11.70;7.40;;;17.80;99.90;;;;;;6159143;23;20017;-78
2022/07/26 00:11:48;;;;;;;4.93;3.63;;;17.90;99.90;;;;;;6152476;23;20029;-78
2022/07/26 00:14:16;;;;;;;7.22;5.15;;;17.90;99.90;;;;;;6158092;23;20024;-78
2022/07/26 00:16:44;;;;;;;14.20;4.65;;;17.90;99.90;;;;;;6159042;23;20017;-77
2022/07/26 00:19:12;;;;;;;10.18;4.30;;;17.80;99.90;;;;;;6153319;23;20664;-77
2022/07/26 00:21:40;;;;;;;13.63;5.97;;;17.80;99.90;;;;;;6158284;23;20013;-77
2022/07/26 00:24:08;;;;;;;9.50;4.78;;;17.90;99.90;;;;;;6151185;23;20026;-77
2022/07/26 00:26:36;;;;;;;4.78;4.35;;;17.90;99.90;;;;;;6156410;23;20025;-77
2022/07/26 00:29:04;;;;;;;7.22;4.60;;;17.90;99.90;;;;;;6133009;23;20013;-77
2022/07/26 00:31:32;;;;;;;4.90;4.18;;;17.90;99.90;;;;;;6153375;23;20025;-77
2022/07/26 00:34:00;;;;;;;9.00;4.22;;;17.80;99.90;;;;;;6158996;23;20013;-77
2022/07/26 00:36:28;;;;;;;7.15;4.63;;;17.80;99.90;;;;;;6148074;23;20025;-77
2022/07/26 00:38:56;;;;;;;11.00;5.82;;;17.80;99.90;;;;;;6152299;23;20028;-77
2022/07/26 00:41:24;;;;;;;8.38;6.35;;;17.70;99.90;;;;;;6159143;23;20013;-77
2022/07/26 00:43:58;;;;;;;8.30;5.22;;;17.70;99.90;;;;;;6151282;23;20040;-77
2022/07/26 00:46:26;;;;;;;6.63;4.85;;;17.70;99.90;;;;;;6156404;23;20575;-76
2022/07/26 00:48:54;;;;;;;9.70;5.03;;;17.60;99.90;;;;;;6157082;23;20424;-76
2022/07/26 00:51:22;;;;;;;5.18;4.05;;;17.60;99.90;;;;;;6151909;23;20032;-76
2022/07/26 00:53:50;;;;;;;5.65;4.28;;;17.60;99.90;;;;;;6157817;23;20017;-76
2022/07/26 00:56:18;;;;;;;8.55;3.85;;;17.60;99.90;;;;;;6148544;23;20021;-77
2022/07/26 00:58:46;;;;;;;9.63;4.35;;;17.70;99.90;;;;;;6154974;23;20433;-76
2022/07/26 01:01:14;;;;;;;5.13;4.20;;;17.70;99.90;;;;;;6157865;23;20018;-77
2022/07/26 01:03:41;;;;;;;4.35;3.55;;;17.70;99.90;;;;;;6151282;23;20318;-76
2022/07/26 01:06:10;;;;;;;9.45;3.70;;;17.70;99.90;;;;;;6130982;23;20025;-77
2022/07/26 01:08:38;;;;;;;5.85;3.75;;;17.70;99.90;;;;;;6146987;23;20021;-76
2022/07/26 01:11:06;;;;;;;4.50;3.55;;;17.70;99.90;;;;;;6147238;23;20036;-76
2022/07/26 01:13:34;;;;;;;4.05;3.42;;;17.70;99.90;;;;;;6157810;23;20020;-76
2022/07/26 01:16:02;;;;;;;4.13;3.58;;;17.70;99.90;;;;;;6150059;23;20029;-76
2022/07/26 01:18:30;;;;;;;3.45;3.15;;;17.70;99.90;;;;;;6155457;23;20341;-76
2022/07/26 01:21:01;;;;;;;4.43;3.20;;;17.70;99.90;;;;;;6156997;23;20317;-76
2022/07/26 01:23:42;;;;;;;8.55;3.38;;;17.70;99.90;;;;;;6152161;23;20040;-76
2022/07/26 01:26:10;;;;;;;7.18;4.40;;;17.70;99.90;;;;;;6157795;23;20014;-77
2022/07/26 01:28:39;;;;;;;6.15;3.17;;;17.70;99.90;;;;;;6147066;23;20036;-76
2022/07/26 01:31:07;;;;;;;4.43;3.17;;;17.70;99.90;;;;;;6152973;23;20032;-76
2022/07/26 01:33:35;;;;;;;3.90;2.75;;;17.70;99.90;;;;;;6157016;23;20025;-76
2022/07/26 01:36:03;;;;;;;4.97;2.72;;;17.70;99.90;;;;;;6152160;23;20033;-80
2022/07/26 01:38:31;;;;;;;3.78;3.15;;;17.70;99.90;;;;;;6154878;23;20032;-80
2022/07/26 01:40:59;;;;;;;6.20;4.80;;;17.70;99.90;;;;;;6160219;23;20017;-80
2022/07/26 01:43:26;;;;;;;9.07;4.32;;;17.70;99.90;;;;;;6154841;23;20452;-80
2022/07/26 01:45:54;;;;;;;5.75;3.75;;;17.70;99.90;;;;;;6159838;23;20060;-80
2022/07/26 01:48:22;;;;;;;3.55;3.22;;;17.70;99.90;;;;;;6150728;23;20041;-80
2022/07/26 01:50:49;;;;;;;3.90;3.45;;;17.80;99.90;;;;;;6157472;23;20025;-79
2022/07/26 01:53:17;;;;;;;3.55;3.25;;;17.80;99.90;;;;;;6159084;23;20014;-79
2022/07/26 01:55:45;;;;;;;2.83;2.50;;;17.80;99.90;;;;;;6153094;23;20056;-80
2022/07/26 01:58:16;;;;;;;5.97;3.50;;;17.80;99.90;;;;;;6159313;23;20060;-79
2022/07/26 02:00:44;;;;;;;7.05;2.88;;;17.80;99.90;;;;;;6149259;23;20021;-80
2022/07/26 02:03:12;;;;;;;11.60;3.05;;;17.80;99.90;;;;;;6155590;23;20028;-80
2022/07/26 02:05:40;;;;;;;4.35;2.88;;;17.80;99.90;;;;;;6160023;23;20013;-79
2022/07/26 02:08:08;;;;;;;3.97;3.13;;;17.80;99.90;;;;;;6150188;23;20032;-77
2022/07/26 02:13:23;;;;;;;4.93;3.63;;;17.80;99.90;;;;;;6124068;23;20028;-79
2022/07/26 02:15:51;;;;;;;6.40;3.60;;;17.80;99.90;;;;;;6151157;23;20057;-76
2022/07/26 02:18:19;;;;;;;6.85;3.78;;;17.90;99.90;;;;;;6155436;23;20864;-76
2022/07/26 02:20:47;;;;;;;5.50;3.90;;;17.80;99.90;;;;;;6157048;23;20017;-76
2022/07/26 02:23:14;;;;;;;5.32;4.82;;;17.80;99.90;;;;;;6151070;23;20032;-76
2022/07/26 02:25:42;;;;;;;7.10;3.08;;;17.80;99.90;;;;;;6157064;23;20017;-76
2022/07/26 02:28:10;;;;;;;12.38;4.60;;;17.90;99.90;;;;;;6150398;23;20032;-79
2022/07/26 02:30:38;;;;;;;6.45;4.82;;;17.90;99.90;;;;;;6157289;23;20021;-80
2022/07/26 02:33:06;;;;;;;6.57;4.10;;;17.90;99.90;;;;;;6158915;23;20028;-80
2022/07/26 02:35:34;;;;;;;4.75;4.10;;;17.90;99.90;;;;;;6153309;23;20025;-79
2022/07/26 02:38:04;;;;;;;7.43;3.85;;;17.90;99.90;;;;;;6155937;23;20025;-80
2022/07/26 02:40:32;;;;;;;3.93;2.70;;;17.90;99.90;;;;;;6149317;23;20030;-80
2022/07/26 02:43:01;;;;;;;7.97;3.80;;;17.80;99.90;;;;;;6155115;23;20585;-80
2022/07/26 02:45:28;;;;;;;6.13;3.78;;;17.80;99.90;;;;;;6158961;23;20024;-80
2022/07/26 02:47:56;;;;;;;4.50;3.38;;;17.80;99.90;;;;;;6151104;23;20037;-79
2022/07/26 02:50:26;;;;;;;3.38;2.88;;;17.80;99.90;;;;;;6156917;23;20021;-79
2022/07/26 02:52:55;;;;;;;4.22;3.83;;;17.80;99.90;;;;;;6141481;23;20021;-80
2022/07/26 02:55:25;;;;;;;5.13;3.75;;;17.80;99.90;;;;;;6153784;23;20032;-80
2022/07/26 02:58:01;;;;;;;6.20;3.83;;;17.90;99.90;;;;;;6158544;23;20409;-80
2022/07/26 03:00:28;;;;;;;10.45;3.38;;;17.90;99.90;;;;;;6148844;23;20034;-80
2022/07/26 03:02:56;;;;;;;4.30;3.15;;;17.90;99.90;;;;;;6155082;23;20056;-80
2022/07/26 03:05:24;;;;;;;7.90;3.58;;;17.90;99.90;;;;;;6158766;23;20310;-80
2022/07/26 03:07:52;;;;;;;5.50;3.00;;;17.80;99.90;;;;;;6150842;23;20032;-80
2022/07/26 03:10:20;;;;;;;5.65;2.88;;;17.80;99.90;;;;;;6157610;23;20021;-80
2022/07/26 03:12:47;;;;;;;5.10;2.83;;;17.80;99.90;;;;;;6158589;23;20021;-80
2022/07/26 03:15:15;;;;;;;5.03;3.05;;;17.80;99.90;;;;;;6153829;23;20025;-80
2022/07/26 03:17:43;;;;;;;4.43;3.42;;;17.80;99.90;;;;;;6158513;23;20013;-80
2022/07/26 03:20:11;;;;;;;4.45;3.72;;;17.90;99.90;;;;;;6149485;23;20322;-80
2022/07/26 03:22:39;;;;;;;6.32;3.35;;;17.80;99.90;;;;;;6155954;23;20017;-80
2022/07/26 03:25:07;;;;;;;6.30;3.72;;;17.80;99.90;;;;;;6158654;23;20520;-79
2022/07/26 03:27:34;;;;;;;4.50;3.55;;;17.80;99.90;;;;;;6152350;23;20044;-80
2022/07/26 03:30:04;;;;;;;4.00;3.60;;;17.80;99.90;;;;;;6122683;23;20025;-80
2022/07/26 03:32:32;;;;;;;4.30;2.88;;;17.70;99.90;;;;;;6151018;23;20025;-80
2022/07/26 03:34:59;;;;;;;5.10;4.30;;;17.70;99.90;;;;;;6157268;23;20029;-80
2022/07/26 03:37:27;;;;;;;9.20;4.15;;;17.70;99.90;;;;;;6160046;23;20025;-80
2022/07/26 03:40:16;;;;;;;6.20;3.20;;;17.60;99.90;;;;;;6152024;23;20034;-80
2022/07/26 03:42:45;;;;;;;4.80;2.60;;;17.60;99.90;;;;;;6157966;23;20022;-79
2022/07/26 03:45:14;;;;;;;3.60;2.90;;;17.60;99.90;;;;;;6160870;23;20017;-79
2022/07/26 03:47:42;;;;;;;3.25;2.35;;;17.60;99.90;;;;;;6155021;23;20022;-80
2022/07/26 03:50:12;;;;;;;4.00;2.63;;;17.50;99.90;;;;;;6160307;23;20471;-79
2022/07/26 03:52:40;;;;;;;5.50;2.53;;;17.50;99.90;;;;;;6149190;23;20033;-79
2022/07/26 03:57:56;;;;;;;12.90;4.00;;;17.40;99.90;;;;;;6160930;23;20017;-78
2022/07/26 04:00:24;;;;;;;11.63;3.33;;;17.40;99.90;;;;;;6151636;23;20029;-79
2022/07/26 04:02:51;;;;;;;10.57;2.55;;;17.40;99.90;;;;;;6157977;23;20037;-78
2022/07/26 04:05:19;;;;;;;8.27;3.53;;;17.40;99.90;;;;;;6160821;23;20017;-80
2022/07/26 04:07:50;;;;;;;3.83;2.60;;;17.40;99.90;;;;;;6152962;23;20033;-78
2022/07/26 04:10:21;;;;;;;3.67;2.15;;;17.40;99.90;;;;;;6158018;23;20017;-78
2022/07/26 04:12:49;;;;;;;2.03;1.83;;;17.40;99.90;;;;;;6160896;23;20337;-78
2022/07/26 04:15:17;;;;;;;5.13;2.47;;;17.40;99.90;;;;;;6155738;23;20889;-79
2022/07/26 04:17:47;;;;;;;3.55;2.92;;;17.40;99.90;;;;;;6160400;23;20017;-79
2022/07/26 04:20:15;;;;;;;4.50;2.05;;;17.40;99.90;;;;;;6151115;23;20033;-78
2022/07/26 04:22:43;;;;;;;5.10;2.67;;;17.30;99.90;;;;;;6147771;23;20099;-78
2022/07/26 04:25:11;;;;;;;5.68;2.60;;;17.40;99.90;;;;;;6160487;23;20436;-79
2022/07/26 04:27:39;;;;;;;3.78;2.97;;;17.40;99.90;;;;;;6153805;23;20032;-79
2022/07/26 04:30:08;;;;;;;5.68;2.20;;;17.40;99.90;;;;;;6160127;23;20014;-79
2022/07/26 04:32:47;;;;;;;3.17;2.88;;;17.50;99.90;;;;;;6149159;23;20029;-79
2022/07/26 04:35:24;;;;;;;7.47;2.67;;;17.50;99.90;;;;;;6155444;23;20021;-79
2022/07/26 04:37:52;;;;;;;4.63;2.33;;;17.50;99.90;;;;;;6159463;23;20020;-78
2022/07/26 04:40:21;;;;;;;2.78;2.25;;;17.50;99.90;;;;;;6151058;23;20037;-79
2022/07/26 04:42:51;;;;;;;6.35;2.80;;;17.50;99.90;;;;;;6156573;23;20021;-79
2022/07/26 04:45:19;;;;;;;2.78;2.55;;;17.40;99.90;;;;;;6160127;23;20014;-79
2022/07/26 04:47:49;;;;;;;7.38;3.95;;;17.40;99.90;;;;;;6152838;23;20040;-79
2022/07/26 04:50:18;;;;;;;2.95;2.60;;;17.40;99.90;;;;;;6158922;23;20021;-80
2022/07/26 04:52:47;;;;;;;6.72;2.92;;;17.40;99.90;;;;;;6158492;23;20022;-79
2022/07/26 04:55:16;;;;;;;6.63;2.88;;;17.30;99.90;;;;;;6128114;23;20026;-78
2022/07/26 04:57:44;;;;;;;5.40;2.33;;;17.40;99.90;;;;;;6159397;23;20017;-78
2022/07/26 05:00:20;;;;;;;6.90;2.80;;;17.30;99.90;;;;;;6151239;23;20025;-79
2022/07/26 05:02:52;;;;;;;5.63;3.13;;;17.30;99.90;;;;;;6156485;23;20018;-78
2022/07/26 05:05:21;;;;;;;4.07;2.80;;;17.30;99.90;;;;;;6159363;23;20467;-78
2022/07/26 05:07:51;;;;;;;3.45;3.05;;;17.30;99.90;;;;;;6151700;23;20028;-78
2022/07/26 05:10:20;;;;;;;6.85;2.85;;;17.30;99.90;;;;;;6155972;23;20040;-78
2022/07/26 05:12:48;;;;;;;10.55;3.38;;;17.30;99.90;;;;;;6158123;23;20020;-78
2022/07/26 05:15:16;;;;;;;17.30;3.97;;;17.30;99.90;;;;;;6155782;23;20582;-78
2022/07/26 05:17:44;;;;;;;3.28;2.85;;;17.30;99.90;;;;;;6160174;23;20024;-78
2022/07/26 05:20:14;;;;;;;4.72;3.08;;;17.40;99.90;;;;;;6150943;23;20051;-78
2022/07/26 05:22:43;;;;;;;9.52;3.13;;;17.30;99.90;;;;;;6157214;23;20017;-78
2022/07/26 05:25:10;;;;;;;4.03;2.47;;;17.40;99.90;;;;;;6159884;23;20036;-78
2022/07/26 05:27:40;;;;;;;2.83;2.30;;;17.40;99.90;;;;;;6151805;23;20033;-77
2022/07/26 05:30:09;;;;;;;2.72;2.53;;;17.40;99.90;;;;;;6158976;23;20017;-79
2022/07/26 05:32:37;;;;;;;4.53;2.60;;;17.30;99.90;;;;;;6149552;23;20032;-78
2022/07/26 05:35:06;;;;;;;3.15;2.65;;;17.40;99.90;;;;;;6153513;23;20025;-79
2022/07/26 05:37:38;;;;;;;2.85;2.45;;;17.40;99.90;;;;;;6152861;23;20018;-78
2022/07/26 05:40:14;;;;;;;3.22;2.38;;;17.40;99.90;;;;;;6145649;23;20026;-78
2022/07/26 05:42:42;;;;;;;4.55;3.10;;;17.40;99.90;;;;;;6126080;23;20349;-79
2022/07/26 05:45:10;;;;;;;4.05;3.72;;;17.40;99.90;;;;;;6154482;23;20013;-79
2022/07/26 05:47:37;;;;;;;3.08;2.60;;;17.40;99.90;;;;;;6148046;23;20030;-78
2022/07/26 05:50:06;;;;;;;2.50;2.30;;;17.40;99.90;;;;;;6154496;23;20021;-79
2022/07/26 05:52:34;;;;;;;3.50;2.97;;;17.40;99.90;;;;;;6116002;23;20040;-79
2022/07/26 05:55:02;;;;;;;3.10;2.20;;;17.40;99.90;;;;;;6151187;23;20345;-78
2022/07/26 05:57:40;;;;;;;3.58;2.53;;;17.30;99.90;;;;;;6132410;23;20017;-78
2022/07/26 06:00:09;;;;;;;3.08;2.67;;;17.30;99.90;;;;;;6150771;23;20025;-79
2022/07/26 06:02:40;;;;;;;2.83;2.58;;;17.30;99.90;;;;;;6156800;23;20021;-79
2022/07/26 06:05:08;;;;;;;3.05;2.53;;;17.40;99.90;;;;;;6158420;23;20021;-78
2022/07/26 06:07:36;;;;;;;2.83;2.50;;;17.40;99.90;;;;;;6151232;23;20025;-78
2022/07/26 06:10:04;;;;;;;4.05;2.55;;;17.40;99.90;;;;;;6157162;23;20024;-78
2022/07/26 06:12:32;;;;;;;5.38;3.45;;;17.40;99.90;;;;;;6147453;23;20504;-78
2022/07/26 06:15:00;;;;;;;3.85;2.63;;;17.40;99.90;;;;;;6153734;23;20032;-78
2022/07/26 06:17:28;;;;;;;5.13;2.85;;;17.40;99.90;;;;;;6157081;23;20017;-78
2022/07/26 06:19:59;;;;;;;3.45;2.78;;;17.40;99.90;;;;;;6151434;23;20032;-79
2022/07/26 06:22:26;;;;;;;4.55;2.67;;;17.40;99.90;;;;;;6157052;23;20445;-79
2022/07/26 06:24:54;;;;;;;4.10;2.40;;;17.50;99.90;;;;;;6133007;23;20024;-79
2022/07/26 06:27:25;;;;;;;2.67;2.20;;;17.50;99.90;;;;;;6154261;23;20495;-79
2022/07/26 06:29:53;;;;;;;5.10;2.80;;;17.50;99.90;;;;;;6159742;23;20020;-79
2022/07/26 06:32:21;;;;;;;3.50;3.13;;;17.60;99.90;;;;;;6149078;23;20029;-79
2022/07/26 06:34:48;;;;;;;3.03;2.22;;;17.50;99.90;;;;;;6155125;23;20029;-78
2022/07/26 06:37:16;;;;;;;3.85;2.30;;;17.50;99.90;;;;;;6156331;23;20017;-78
2022/07/26 06:39:45;;;;;;;2.35;2.15;;;17.50;99.90;;;;;;6148019;23;20480;-78
2022/07/26 06:42:12;;;;;;;6.00;2.40;;;17.40;99.90;;;;;;6157833;23;20013;-78
2022/07/26 06:44:40;;;;;;;2.38;2.17;;;17.40;99.90;;;;;;6146825;23;20029;-79
2022/07/26 06:47:08;;;;;;;39.30;5.35;;;17.30;99.90;;;;;;6124154;23;20022;-79
2022/07/26 06:49:36;;;;;;;10.60;4.20;;;17.30;99.90;;;;;;6153972;23;20014;-78
2022/07/26 06:52:04;;;;;;;2.00;1.80;;;17.30;99.90;;;;;;6143674;23;20029;-77
2022/07/26 06:54:32;;;;;;;3.65;2.75;;;17.30;99.90;;;;;;6152230;23;20020;-78
2022/07/26 06:57:01;;;;;;;4.28;2.75;;;17.30;99.90;;;;;;6154426;23;20013;-78
2022/07/26 06:59:29;;;;;;;2.33;2.13;;;17.30;99.90;;;;;;6122396;23;20030;-77
2022/07/26 07:01:56;;;;;;;2.45;2.25;;;17.20;99.90;;;;;;6153581;23;20333;-77
2022/07/26 07:04:32;;;;;;;2.05;1.90;;;17.20;99.90;;;;;;6143907;23;20021;-78
2022/07/26 07:07:09;;;;;;;2.15;1.70;;;17.10;99.90;;;;;;6148126;23;20026;-77
2022/07/26 07:09:39;;;;;;;4.25;2.22;;;17.10;99.90;;;;;;6152860;23;20017;-77
2022/07/26 07:12:09;;;;;;;;;;;17.10;99.90;;;;;;6143747;23;20041;-77
2022/07/26 07:14:38;;;;;;;3.08;2.53;;;17.20;99.90;;;;;;6143262;23;19933;-77
2022/07/26 07:17:07;;;;;;;4.05;2.35;;;17.20;99.90;;;;;;6153477;23;20349;-77
2022/07/26 07:19:40;;;;;;;3.40;2.08;;;17.20;99.90;;;;;;6147262;23;20022;-78
2022/07/26 07:22:10;;;;;;;2.85;2.38;;;17.20;99.90;;;;;;6151731;23;20018;-77
2022/07/26 07:24:40;;;;;;;4.18;3.00;;;17.20;99.90;;;;;;6143521;23;20032;-77
2022/07/26 07:27:08;;;;;;;5.03;4.53;;;17.20;99.90;;;;;;6149911;23;20021;-77
2022/07/26 07:29:38;;;;;;;2.60;2.40;;;17.20;99.90;;;;;;6117056;23;20026;-77
2022/07/26 07:32:08;;;;;;;5.93;3.25;;;17.30;99.90;;;;;;6145443;23;20029;-79
2022/07/26 07:34:49;;;;;;;8.50;3.38;;;17.30;99.90;;;;;;6151339;23;20122;-77
2022/07/26 07:37:17;;;;;;;3.00;2.28;;;17.30;99.90;;;;;;6151421;23;20471;-78
2022/07/26 07:39:48;;;;;;;;;;;17.40;99.90;;;;;;6118927;23;20424;-77
2022/07/26 07:42:18;;;;;;;6.97;4.93;;;17.30;99.90;;;;;;6153555;23;19920;-79
2022/07/26 07:44:46;;;;;;;4.20;3.78;;;17.30;99.90;;;;;;6153947;23;20025;-79
2022/07/26 07:47:14;;;;;;;4.03;3.45;;;17.40;99.90;;;;;;6153784;23;20076;-77
2022/07/26 07:49:44;;;;;;;5.18;3.40;;;17.30;99.90;;;;;;6120795;23;20028;-77
2022/07/26 07:52:20;;;;;;;8.10;2.85;;;17.40;99.90;;;;;;6147639;23;20041;-77
2022/07/26 07:54:48;;;;;;;3.35;3.05;;;17.40;99.90;;;;;;6119506;23;20021;-77
2022/07/26 07:57:16;;;;;;;3.08;2.75;;;17.50;99.90;;;;;;6130176;23;20013;-79
2022/07/26 07:59:44;;;;;;;3.45;3.15;;;17.60;99.90;;;;;;6145962;23;20029;-78
2022/07/26 08:02:15;;;;;;;4.35;2.95;;;17.70;99.90;;;;;;6153557;23;20020;-78
2022/07/26 08:04:52;;;;;;;5.50;3.20;;;17.80;99.90;;;;;;6119639;23;20029;-78
2022/07/26 08:07:20;;;;;;;3.45;3.03;;;17.90;99.90;;;;;;6146168;23;20456;-78
2022/07/26 08:09:48;;;;;;;4.63;3.40;;;18.10;99.90;;;;;;6152766;23;20496;-78
2022/07/26 08:12:16;;;;;;;5.35;3.30;;;18.20;99.90;;;;;;6142629;23;20371;-78
2022/07/26 08:14:43;;;;;;;3.88;3.55;;;18.20;99.90;;;;;;6147579;23;20601;-78
2022/07/26 08:17:11;;;;;;;6.05;4.10;;;18.30;99.90;;;;;;6155330;23;20013;-78
2022/07/26 08:19:39;;;;;;;11.20;4.30;;;18.30;99.90;;;;;;6121735;23;20308;-79
2022/07/26 08:22:09;;;;;;;4.40;3.22;;;18.30;99.90;;;;;;6117465;23;20032;-78
2022/07/26 08:24:37;;;;;;;6.55;3.45;;;18.10;99.90;;;;;;6144312;23;20037;-78
2022/07/26 08:27:06;;;;;;;4.30;3.53;;;18.20;99.90;;;;;;6153855;23;20018;-80
2022/07/26 08:29:33;;;;;;;5.85;4.55;;;18.10;99.90;;;;;;6160059;23;20437;-78
2022/07/26 08:32:01;;;;;;;5.38;3.53;;;18.10;99.90;;;;;;6150899;23;20362;-77
2022/07/26 08:34:29;;;;;;;4.65;3.95;;;18.10;99.90;;;;;;6157650;23;20018;-77
2022/07/26 08:36:57;;;;;;;7.57;4.30;;;18.00;99.90;;;;;;6158599;23;20014;-77
2022/07/26 08:39:43;;;;;;;4.60;3.65;;;18.00;99.90;;;;;;6147600;23;20028;-78
2022/07/26 08:42:16;;;;;;;7.00;4.75;;;18.00;99.90;;;;;;6156809;23;20024;-78
2022/07/26 08:44:50;;;;;;;9.07;4.10;;;18.00;99.90;;;;;;6148400;23;20030;-78
2022/07/26 08:47:19;;;;;;;4.80;3.97;;;18.00;99.90;;;;;;6154012;23;20022;-77
2022/07/26 08:50:08;;;;;;;5.78;3.85;;;18.20;99.90;;;;;;6157308;23;20013;-77
2022/07/26 08:52:39;;;;;;;5.00;4.10;;;18.20;99.90;;;;;;6146697;23;20033;-77
2022/07/26 08:55:17;;;;;;;6.40;3.50;;;18.30;99.90;;;;;;6153986;23;20047;-77
2022/07/26 08:57:54;;;;;;;6.40;3.50;;;18.30;99.90;;;;;;6158158;23;20421;-77
2022/07/26 09:00:29;;;;;;;7.32;3.80;;;18.30;99.90;;;;;;6149243;23;20029;-78
2022/07/26 09:03:00;;;;;;;4.75;3.80;;;18.30;99.90;;;;;;6154852;23;20021;-78
2022/07/26 09:05:40;;;;;;;5.72;3.72;;;18.20;99.90;;;;;;6158716;23;20025;-78
2022/07/26 09:08:28;;;;;;;7.00;4.25;;;18.10;99.90;;;;;;6148894;23;20028;-77
2022/07/26 09:10:56;;;;;;;6.80;3.25;;;18.20;99.90;;;;;;6154974;23;20029;-77
2022/07/26 09:13:24;;;;;;;2.78;2.45;;;18.20;99.90;;;;;;6131723;23;20021;-77
2022/07/26 09:16:11;;;;;;;5.40;3.33;;;18.20;99.90;;;;;;6119866;23;20033;-77
2022/07/26 09:18:38;;;;;;;4.50;1.70;;;18.20;99.90;;;;;;6120106;23;20021;-78
2022/07/26 09:21:06;;;;;;;4.78;2.17;;;18.10;99.90;;;;;;6157596;23;20445;-78
2022/07/26 09:23:39;;;;;;;4.32;3.55;;;18.10;99.90;;;;;;6151702;23;20361;-77
2022/07/26 09:26:06;;;;;;;3.30;2.60;;;18.00;99.90;;;;;;6157035;23;20013;-78
2022/07/26 09:28:34;;;;;;;3.03;2.33;;;18.00;99.90;;;;;;6143649;23;20022;-79
2022/07/26 09:31:05;;;;;;;2.58;2.35;;;18.00;99.90;;;;;;6150699;23;20341;-79
2022/07/26 09:33:47;;;;;;;3.30;2.92;;;18.00;99.90;;;;;;6118192;23;20021;-78
2022/07/26 09:36:17;;;;;;;6.55;3.28;;;17.90;99.90;;;;;;6143415;23;20033;-79
2022/07/26 09:38:47;;;;;;;3.35;2.58;;;17.90;99.90;;;;;;6148033;23;20025;-78
2022/07/26 09:41:31;;;;;;;2.03;1.83;;;17.90;99.90;;;;;;6154512;23;20018;-79
2022/07/26 09:44:01;;;;;;;2.97;2.55;;;17.80;99.90;;;;;;6147446;23;20180;-79
2022/07/26 09:46:30;;;;;;;3.03;2.20;;;17.80;99.90;;;;;;6152440;23;20353;-79
2022/07/26 09:49:18;;;;;;;2.90;2.30;;;17.80;99.90;;;;;;6127344;23;20013;-79
2022/07/26 09:51:48;;;;;;;2.88;1.90;;;17.80;99.90;;;;;;6146231;23;20487;-79
2022/07/26 09:54:28;;;;;;;4.65;1.98;;;17.90;99.90;;;;;;6154064;23;20017;-80
2022/07/26 09:56:56;;;;;;;4.18;2.60;;;17.80;99.90;;;;;;6153777;23;20021;-77
2022/07/26 09:59:26;;;;;;;4.25;2.67;;;17.90;99.90;;;;;;6148215;23;20033;-79
2022/07/26 10:01:56;;;;;;;3.80;2.03;;;17.90;99.90;;;;;;6153930;23;20018;-79
2022/07/26 10:04:25;;;;;;;3.78;2.78;;;18.10;99.90;;;;;;6119011;23;20026;-79
2022/07/26 10:06:56;;;;;;;4.22;2.40;;;18.10;99.90;;;;;;6148526;23;20017;-80
2022/07/26 10:09:31;;;;;;;3.25;2.83;;;18.10;99.90;;;;;;6154306;23;20021;-79
2022/07/26 10:12:02;;;;;;;14.40;3.10;;;18.20;99.90;;;;;;6118905;23;20041;-80
2022/07/26 10:14:32;;;;;;;7.22;3.10;;;18.20;99.90;;;;;;6157541;23;20021;-78
2022/07/26 10:17:20;;;;;;;11.63;3.40;;;18.20;99.90;;;;;;6159720;23;20018;-79
2022/07/26 10:20:00;;;;;;;5.38;2.90;;;18.30;99.90;;;;;;6149958;23;20030;-81
2022/07/26 10:22:39;;;;;;;5.80;1.98;;;18.40;99.90;;;;;;6132043;23;20014;-78
2022/07/26 10:25:17;;;;;;;2.35;1.98;;;18.40;99.90;;;;;;6160566;23;20018;-80
2022/07/26 10:28:04;;;;;;;2.55;2.35;;;18.40;99.90;;;;;;6153430;23;20032;-79
2022/07/26 10:30:38;;;;;;;3.97;2.85;;;18.40;99.90;;;;;;6158315;23;20025;-80
2022/07/26 10:33:09;;;;;;;3.58;2.53;;;18.50;99.90;;;;;;6123751;23;20022;-79
2022/07/26 10:35:42;;;;;;;;;;;18.50;99.90;;;;;;6125140;23;20033;-82
2022/07/26 10:38:13;;;;;;;2.97;1.83;;;18.50;99.90;;;;;;6157970;23;19921;-81
2022/07/26 10:41:01;;;;;;;2.58;2.38;;;18.40;99.90;;;;;;6150318;23;20033;-82
2022/07/26 10:43:29;;;;;;;1.83;1.73;;;18.50;99.90;;;;;;6129198;23;20033;-82
2022/07/26 10:46:17;;;;;;;6.20;1.90;;;18.60;99.90;;;;;;6134724;23;20340;-82
2022/07/26 10:49:03;;;;;;;5.45;2.53;;;18.70;99.90;;;;;;6123866;23;20029;-81
2022/07/26 10:51:37;;;;;;;3.72;2.58;;;18.70;99.90;;;;;;6154577;23;20044;-82
2022/07/26 10:54:11;;;;;;;4.28;2.47;;;18.90;99.90;;;;;;6160709;23;20021;-82
2022/07/26 10:56:40;;;;;;;8.32;2.67;;;19.10;99.90;;;;;;6147481;23;20029;-81
2022/07/26 10:59:31;;;;;;;2.55;2.22;;;19.20;99.90;;;;;;6123497;23;20029;-81
2022/07/26 11:02:20;;;;;;;2.65;2.20;;;19.30;99.90;;;;;;6158967;23;20017;-81
2022/07/26 11:04:49;;;;;;;6.30;2.80;;;19.60;99.90;;;;;;6159495;23;20014;-81
2022/07/26 11:07:16;;;;;;;2.13;1.92;;;19.70;99.90;;;;;;6147417;23;20393;-86
2022/07/26 11:09:44;;;;;;;2.67;2.47;;;19.80;99.90;;;;;;6088807;23;20041;-82
2022/07/26 11:12:19;;;;;;;8.18;4.03;;;20.10;99.90;;;;;;6144333;23;20033;-83
2022/07/26 11:14:47;;;;;;;3.33;2.83;;;20.30;99.90;;;;;;6095872;23;20021;-82
2022/07/26 11:17:26;;;;;;;5.25;3.25;;;20.10;99.90;;;;;;6124189;23;20017;-83
2022/07/26 11:19:55;;;;;;;2.55;2.15;;;19.90;99.90;;;;;;6115805;23;20056;-82
2022/07/26 11:22:32;;;;;;;3.30;2.72;;;20.10;99.90;;;;;;6123852;23;20017;-81
2022/07/26 11:25:01;;;;;;;2.67;2.40;;;20.40;99.90;;;;;;6116364;23;20018;-84
2022/07/26 11:27:29;;;;;;;4.43;2.55;;;20.70;99.90;;;;;;6091505;23;20034;-85
2022/07/26 11:30:03;;;;;;;7.50;3.60;;;20.90;99.90;;;;;;6151694;23;20029;-81
2022/07/26 11:32:31;;;;;;;3.05;1.52;;;21.00;99.90;;;;;;6142648;23;20037;-83
2022/07/26 11:35:01;;;;;;;5.68;3.53;;;21.00;99.90;;;;;;6149612;23;20457;-80
2022/07/26 11:37:29;;;;;;;3.85;2.67;;;21.20;99.90;;;;;;6114739;23;20445;-81
2022/07/26 11:39:57;;;;;;;4.97;2.92;;;21.10;99.90;;;;;;6115515;23;20037;-83
2022/07/26 11:42:25;;;;;;;3.13;2.42;;;20.90;99.90;;;;;;6151982;23;20022;-81
2022/07/26 11:44:53;;;;;;;2.00;1.90;;;20.60;99.90;;;;;;6116595;23;20032;-83
2022/07/26 11:47:22;;;;;;;2.90;2.70;;;20.30;99.90;;;;;;6121788;23;20029;-82
2022/07/26 11:49:53;;;;;;;2.40;2.15;;;20.40;99.90;;;;;;6152352;23;20018;-80
2022/07/26 11:52:41;;;;;;;2.55;2.35;;;20.90;99.90;;;;;;6142623;23;20357;-81
2022/07/26 11:55:09;;;;;;;3.25;3.05;;;20.90;99.90;;;;;;6150523;23;20025;-83
2022/07/26 11:57:37;;;;;;;5.65;3.33;;;20.80;99.90;;;;;;6154721;23;20042;-81
2022/07/26 12:00:07;;;;;;;3.03;1.80;;;20.80;99.90;;;;;;6117494;23;20036;-83
2022/07/26 12:02:38;;;;;;;2.03;1.92;;;20.80;99.90;;;;;;6092709;23;20555;-80
2022/07/26 12:05:18;;;;;;;4.03;2.30;;;20.90;99.90;;;;;;6155222;23;20028;-79
2022/07/26 12:07:57;;;;;;;2.35;2.15;;;21.20;99.90;;;;;;6122132;23;20040;-82
2022/07/26 12:10:26;;;;;;;2.90;1.75;;;21.10;99.90;;;;;;6131230;23;20025;-81
2022/07/26 12:13:12;;;;;;;2.00;1.85;;;21.10;99.90;;;;;;6129990;23;20014;-81
2022/07/26 12:15:58;;;;;;;6.00;1.73;;;21.20;99.90;;;;;;6071454;23;20357;-80
2022/07/26 12:18:31;;;;;;;4.80;2.55;;;21.30;99.90;;;;;;6070365;23;20017;-81
2022/07/26 12:21:00;;;;;;;3.88;2.00;;;21.40;99.90;;;;;;6129591;23;20020;-85
2022/07/26 12:23:43;;;;;;;3.15;2.63;;;21.50;99.90;;;;;;6122613;23;20480;-83
2022/07/26 12:26:25;;;;;;;2.47;2.28;;;21.40;99.90;;;;;;6130836;23;20017;-85
2022/07/26 12:28:54;;;;;;;2.17;1.98;;;21.40;99.90;;;;;;6133859;23;20025;-84
2022/07/26 12:31:30;;;;;;;1.77;1.67;;;21.60;99.90;;;;;;6101684;23;20022;-82
2022/07/26 12:33:58;;;;;;;1.85;1.63;;;21.60;99.90;;;;;;6162607;23;20013;-82
2022/07/26 12:36:26;;;;;;;3.10;1.40;;;21.40;99.90;;;;;;6152816;23;20025;-83
2022/07/26 12:38:58;;;;;;;3.58;2.42;;;21.30;99.90;;;;;;6126167;23;20021;-80
2022/07/26 12:41:37;;;;;;;2.47;2.10;;;21.10;99.90;;;;;;6151789;23;20468;-81
2022/07/26 12:44:06;;;;;;;3.15;2.60;;;21.10;99.90;;;;;;6124237;23;20644;-81
2022/07/26 12:46:38;;;;;;;3.70;2.10;;;21.20;99.90;;;;;;6131068;23;20025;-79
2022/07/26 12:49:11;;;;;;;2.30;2.10;;;21.30;99.90;;;;;;6124269;23;20024;-80
2022/07/26 12:55:05;;;;;;;4.28;1.92;;;21.50;99.90;;;;;;6146913;23;20048;-80
2022/07/26 12:58:02;;;;;;;2.40;2.10;;;21.70;99.90;;;;;;6117785;23;20022;-80
2022/07/26 13:00:30;;;;;;;1.20;1.10;;;21.70;99.90;;;;;;6125110;23;20025;-81
2022/07/26 13:02:58;;;;;;;2.15;1.25;;;21.70;99.90;;;;;;6156932;23;20048;-80
2022/07/26 13:05:27;;;;;;;3.38;2.17;;;21.40;99.90;;;;;;6159864;23;20032;-80
2022/07/26 13:07:54;;;;;;;9.88;2.45;;;21.30;99.90;;;;;;6099762;23;20040;-80
2022/07/26 13:10:22;;;;;;;1.85;1.75;;;21.40;99.90;;;;;;6125096;23;20021;-81
2022/07/26 13:13:06;;;;;;;5.13;2.22;;;21.50;99.90;;;;;;6135414;23;20021;-81
2022/07/26 13:15:33;;;;;;;3.00;2.08;;;21.50;99.90;;;;;;6129605;23;20029;-80